Baltica — 9HA2607 — position and weather

sailwx.info

Track history (hours):
 
Tides and Currents Weather Stations Pressure Air Temp Water Temp Dewpoint Dewpoint Depression Visibility Wind Speed Wind Dir Waves Ship Positions

Baltica

Last reported at 2014-Oct-30 12:08 UTC. Time now 2014-Oct-31 05:37 UTC.
Position N 55°27' E 019°26'.

Length 157 m; draft 6.9 m.

Type: Ship (hazmat cat A). MMSI: 215013000.

Date/timePositionNaut miles runAvg speedWind from/ knotsBaromVisibWave heightAir tempDewpointWater temp
2014-Oct-30 12:08N 55°27' E 019°26'1117.1
2014-Oct-30 11:30N 55°17' E 019°20'1617.3
2014-Oct-30 10:33N 55°01' E 019°11'1717.0
2014-Oct-30 09:34N 54°45' E 019°01'1616.3
2014-Oct-30 08:34N 54°32' E 018°45'8 7.9
2014-Oct-30 07:33N 54°32' E 018°31'0 0.0
2014-Oct-30 06:33N 54°32' E 018°31'0 0.0
2014-Oct-30 05:33N 54°32' E 018°31'0 0.0
2014-Oct-30 04:33N 54°32' E 018°31'0 0.0
2014-Oct-30 03:33N 54°32' E 018°31'0 0.0
2014-Oct-30 02:33N 54°32' E 018°31'0 0.0
2014-Oct-30 01:33N 54°32' E 018°31'1 1.0
2014-Oct-30 00:34N 54°32' E 018°33'9 9.3
2014-Oct-29 23:34N 54°33' E 018°49'1414.1
2014-Oct-29 22:33N 54°46' E 018°60'1716.8
2014-Oct-29 21:34N 55°02' E 019°09'2116.4
2014-Oct-29 20:16N 55°22' E 019°20'21514.4
2014-Oct-29 05:21N 58°46' E 021°23'2513.3
2014-Oct-29 03:29N 59°09' E 021°41'2914.1
2014-Oct-29 01:27N 59°27' E 022°26'1713.8
2014-Oct-29 00:12N 59°33' E 022°57'913.9
2014-Oct-28 23:34N 59°36' E 023°14'1414.0
2014-Oct-28 22:33N 59°40' E 023°41'1515.1
2014-Oct-28 21:33N 59°44' E 024°09'1514.9
2014-Oct-28 20:33N 59°50' E 024°37'1614.7
2014-Oct-28 19:28N 59°59' E 025°04'1314.6
2014-Oct-28 18:33N 60°11' E 025°13'2 2.0
2014-Oct-28 17:33N 60°13' E 025°12'0 0.0
2014-Oct-28 16:33N 60°13' E 025°12'0 0.0
2014-Oct-28 15:33N 60°13' E 025°12'0 0.0
2014-Oct-28 14:15N 60°13' E 025°12'0 0.0
2014-Oct-28 13:33N 60°13' E 025°12'0 0.0
2014-Oct-28 12:33N 60°13' E 025°12'0 0.0
2014-Oct-28 11:33N 60°13' E 025°12'0 0.0
2014-Oct-28 10:33N 60°13' E 025°12'0 0.0
2014-Oct-28 09:33N 60°13' E 025°12'0 0.0
2014-Oct-28 08:33N 60°13' E 025°12'0 0.0
2014-Oct-28 07:33N 60°13' E 025°12'0 0.0
2014-Oct-28 06:27N 60°13' E 025°12'0 0.0
2014-Oct-28 05:30N 60°13' E 025°12'0 0.0
2014-Oct-28 04:33N 60°13' E 025°12'0 0.0
2014-Oct-28 03:30N 60°13' E 025°12'0 0.0
2014-Oct-28 02:33N 60°13' E 025°12'0 0.0
2014-Oct-28 01:27N 60°13' E 025°12'0 0.0
2014-Oct-28 00:33N 60°13' E 025°12'0 0.0
2014-Oct-27 23:33N 60°13' E 025°12'0 0.0
2014-Oct-27 22:24N 60°13' E 025°12'0 0.0
2014-Oct-27 21:30N 60°13' E 025°12'0 0.0
2014-Oct-27 20:33N 60°13' E 025°12'0 0.0
2014-Oct-27 19:33N 60°13' E 025°12'0 0.0
2014-Oct-27 18:33N 60°13' E 025°12'0 0.0
2014-Oct-27 17:30N 60°13' E 025°12'0 0.0
2014-Oct-27 16:33N 60°13' E 025°12'0 0.0
2014-Oct-27 15:33N 60°13' E 025°12'0 0.0
2014-Oct-27 14:33N 60°13' E 025°12'0 0.0
2014-Oct-27 13:33N 60°13' E 025°12'0 0.0
2014-Oct-27 12:33N 60°13' E 025°12'0 0.1
2014-Oct-27 11:33N 60°13' E 025°12'9 9.2
2014-Oct-27 10:33N 60°04' E 025°09'1816.6
2014-Oct-27 09:29N 59°49' E 024°49'1516.5
2014-Oct-27 08:33N 59°44' E 024°21'1816.6
2014-Oct-27 07:30N 59°39' E 023°48'1816.9
2014-Oct-27 06:24N 59°33' E 023°13'23016.3
2014-Oct-26 16:20N 56°09' E 019°52'4817.2
2014-Oct-26 13:33N 55°24' E 019°24'1717.1
2014-Oct-26 12:33N 55°08' E 019°15'1717.3
2014-Oct-26 11:33N 54°52' E 019°05'1111.3
2014-Oct-26 10:34N 54°41' E 018°58'1413.8
2014-Oct-26 09:33N 54°32' E 018°40'5 5.3
2014-Oct-26 08:33N 54°32' E 018°31'0 0.0
2014-Oct-26 07:33N 54°32' E 018°31'0 0.0
2014-Oct-26 06:33N 54°32' E 018°31'0 0.0
2014-Oct-26 05:33N 54°32' E 018°31'0 0.0
2014-Oct-26 04:33N 54°32' E 018°31'0 0.0
2014-Oct-26 03:33N 54°32' E 018°31'0 0.0
2014-Oct-26 02:33N 54°32' E 018°31'0 0.0
2014-Oct-26 01:33N 54°32' E 018°31'0 0.0
2014-Oct-26 00:33N 54°32' E 018°31'1 0.9
2014-Oct-25 23:33N 54°32' E 018°33'1212.2
2014-Oct-25 22:34N 54°36' E 018°53'1615.8
2014-Oct-25 21:33N 54°51' E 019°03'1615.8
2014-Oct-25 20:33N 55°06' E 019°11'30213.7
2014-Oct-24 22:34N 59°37' E 023°19'1615.5
2014-Oct-24 21:33N 59°41' E 023°49'1716.0
2014-Oct-24 20:30N 59°46' E 024°21'3214.6
2014-Oct-24 18:18N 60°06' E 025°11'7 9.2
2014-Oct-24 17:33N 60°13' E 025°12'0 0.0
2014-Oct-24 16:30N 60°13' E 025°12'0 0.0
2014-Oct-24 15:30N 60°13' E 025°12'0 0.0
2014-Oct-24 14:34N 60°13' E 025°12'0 0.0
2014-Oct-24 13:33N 60°13' E 025°12'0 0.0
2014-Oct-24 12:31N 60°13' E 025°12'0 0.0
2014-Oct-24 11:30N 60°13' E 025°12'0 0.0
2014-Oct-24 10:30N 60°13' E 025°12'0 0.0
2014-Oct-24 09:31N 60°13' E 025°12'0 0.0
2014-Oct-24 08:34N 60°13' E 025°12'0 0.0
2014-Oct-24 07:30N 60°13' E 025°12'0 0.0
2014-Oct-24 06:33N 60°13' E 025°12'0 0.0
2014-Oct-24 05:33N 60°13' E 025°12'2512.4
2014-Oct-24 03:33N 59°51' E 024°49'1716.9
2014-Oct-24 02:34N 59°43' E 024°19'1817.3
2014-Oct-24 01:31N 59°37' E 023°46'24716.4
2014-Oct-23 10:27N 56°04' E 019°49'1517.0
2014-Oct-23 09:33N 55°50' E 019°40'1916.9
2014-Oct-23 08:27N 55°33' E 019°29'1517.0
2014-Oct-23 07:33N 55°18' E 019°21'1717.1
2014-Oct-23 06:34N 55°02' E 019°11'1717.2
2014-Oct-23 05:34N 54°46' E 019°01'1616.2
2014-Oct-23 04:33N 54°32' E 018°47'9 8.9
2014-Oct-23 03:33N 54°32' E 018°31'0 0.0
2014-Oct-23 02:31N 54°32' E 018°31'0 0.0
2014-Oct-23 01:31N 54°32' E 018°31'0 0.0
2014-Oct-23 00:31N 54°32' E 018°31'0 0.0
2014-Oct-22 23:31N 54°32' E 018°31'0 0.0
2014-Oct-22 22:31N 54°32' E 018°31'0 0.0
2014-Oct-22 21:22N 54°32' E 018°31'0 0.1
2014-Oct-22 20:33N 54°32' E 018°31'8 7.9
2014-Oct-22 19:34N 54°32' E 018°45'1616.2
2014-Oct-22 18:33N 54°46' E 018°59'1716.8
2014-Oct-22 17:33N 55°02' E 019°09'30516.1
2014-Oct-21 22:33N 59°37' E 023°16'1817.2
2014-Oct-21 21:32N 59°42' E 023°50'1717.4
2014-Oct-21 20:33N 59°47' E 024°22'3316.3
2014-Oct-21 18:31N 60°09' E 025°12'4 4.4
2014-Oct-21 17:31N 60°13' E 025°12'0 0.0
2014-Oct-21 16:31N 60°13' E 025°12'0 0.0
2014-Oct-21 15:31N 60°13' E 025°12'0 0.0
2014-Oct-21 14:31N 60°13' E 025°12'0 0.0
2014-Oct-21 13:31N 60°13' E 025°12'0 0.0
2014-Oct-21 12:31N 60°13' E 025°12'0 0.0
2014-Oct-21 11:31N 60°13' E 025°12'0 0.0
2014-Oct-21 10:31N 60°13' E 025°12'0 0.0
2014-Oct-21 09:31N 60°13' E 025°12'0 0.0
2014-Oct-21 08:31N 60°13' E 025°12'0 0.0
2014-Oct-21 07:31N 60°13' E 025°12'0 0.0
2014-Oct-21 06:31N 60°13' E 025°12'0 0.0
2014-Oct-21 05:31N 60°13' E 025°12'0 0.0
2014-Oct-21 04:31N 60°13' E 025°12'0 0.0
2014-Oct-21 03:31N 60°13' E 025°12'0 0.0
2014-Oct-21 02:31N 60°13' E 025°12'0 0.0
2014-Oct-21 01:31N 60°13' E 025°12'0 0.0
2014-Oct-21 00:31N 60°13' E 025°12'0 0.0
2014-Oct-20 23:31N 60°13' E 025°12'0 0.0
2014-Oct-20 22:31N 60°13' E 025°12'0 0.0
2014-Oct-20 21:31N 60°13' E 025°12'0 0.0
2014-Oct-20 20:31N 60°13' E 025°12'0 0.0
2014-Oct-20 19:31N 60°13' E 025°12'0 0.0
2014-Oct-20 18:31N 60°13' E 025°12'0 0.0
2014-Oct-20 17:31N 60°13' E 025°12'0 0.0
2014-Oct-20 16:28N 60°13' E 025°12'0 0.0
2014-Oct-20 15:31N 60°13' E 025°12'0 0.0
2014-Oct-20 14:31N 60°13' E 025°12'0 0.0
2014-Oct-20 13:31N 60°13' E 025°12'0 0.0
2014-Oct-20 12:31N 60°13' E 025°12'  
Track history (hours):
 
Tides and Currents Weather Stations Pressure Air Temp Water Temp Dewpoint Dewpoint Depression Visibility Wind Speed Wind Dir Waves Ship Positions

Baltica

Last reported at 2014-Oct-30 12:08 UTC. Time now 2014-Oct-31 05:37 UTC.
Position N 55°27' E 019°26'.

Length 157 m; draft 6.9 m.

Type: Ship (hazmat cat A). MMSI: 215013000.

Date/timePositionNaut miles runAvg speedWind from/ knotsBaromVisibWave heightAir tempDewpointWater temp
2014-Oct-30 12:08N 55°27' E 019°26'1117.1
2014-Oct-30 11:30N 55°17' E 019°20'1617.3
2014-Oct-30 10:33N 55°01' E 019°11'1717.0
2014-Oct-30 09:34N 54°45' E 019°01'1616.3
2014-Oct-30 08:34N 54°32' E 018°45'8 7.9
2014-Oct-30 07:33N 54°32' E 018°31'0 0.0
2014-Oct-30 06:33N 54°32' E 018°31'0 0.0
2014-Oct-30 05:33N 54°32' E 018°31'0 0.0
2014-Oct-30 04:33N 54°32' E 018°31'0 0.0
2014-Oct-30 03:33N 54°32' E 018°31'0 0.0
2014-Oct-30 02:33N 54°32' E 018°31'0 0.0
2014-Oct-30 01:33N 54°32' E 018°31'1 1.0
2014-Oct-30 00:34N 54°32' E 018°33'9 9.3
2014-Oct-29 23:34N 54°33' E 018°49'1414.1
2014-Oct-29 22:33N 54°46' E 018°60'1716.8
2014-Oct-29 21:34N 55°02' E 019°09'2116.4
2014-Oct-29 20:16N 55°22' E 019°20'21514.4
2014-Oct-29 05:21N 58°46' E 021°23'2513.3
2014-Oct-29 03:29N 59°09' E 021°41'2914.1
2014-Oct-29 01:27N 59°27' E 022°26'1713.8
2014-Oct-29 00:12N 59°33' E 022°57'913.9
2014-Oct-28 23:34N 59°36' E 023°14'1414.0
2014-Oct-28 22:33N 59°40' E 023°41'1515.1
2014-Oct-28 21:33N 59°44' E 024°09'1514.9
2014-Oct-28 20:33N 59°50' E 024°37'1614.7
2014-Oct-28 19:28N 59°59' E 025°04'1314.6
2014-Oct-28 18:33N 60°11' E 025°13'2 2.0
2014-Oct-28 17:33N 60°13' E 025°12'0 0.0
2014-Oct-28 16:33N 60°13' E 025°12'0 0.0
2014-Oct-28 15:33N 60°13' E 025°12'0 0.0
2014-Oct-28 14:15N 60°13' E 025°12'0 0.0
2014-Oct-28 13:33N 60°13' E 025°12'0 0.0
2014-Oct-28 12:33N 60°13' E 025°12'0 0.0
2014-Oct-28 11:33N 60°13' E 025°12'0 0.0
2014-Oct-28 10:33N 60°13' E 025°12'0 0.0
2014-Oct-28 09:33N 60°13' E 025°12'0 0.0
2014-Oct-28 08:33N 60°13' E 025°12'0 0.0
2014-Oct-28 07:33N 60°13' E 025°12'0 0.0
2014-Oct-28 06:27N 60°13' E 025°12'0 0.0
2014-Oct-28 05:30N 60°13' E 025°12'0 0.0
2014-Oct-28 04:33N 60°13' E 025°12'0 0.0
2014-Oct-28 03:30N 60°13' E 025°12'0 0.0
2014-Oct-28 02:33N 60°13' E 025°12'0 0.0
2014-Oct-28 01:27N 60°13' E 025°12'0 0.0
2014-Oct-28 00:33N 60°13' E 025°12'0 0.0
2014-Oct-27 23:33N 60°13' E 025°12'0 0.0
2014-Oct-27 22:24N 60°13' E 025°12'0 0.0
2014-Oct-27 21:30N 60°13' E 025°12'0 0.0
2014-Oct-27 20:33N 60°13' E 025°12'0 0.0
2014-Oct-27 19:33N 60°13' E 025°12'0 0.0
2014-Oct-27 18:33N 60°13' E 025°12'0 0.0
2014-Oct-27 17:30N 60°13' E 025°12'0 0.0
2014-Oct-27 16:33N 60°13' E 025°12'0 0.0
2014-Oct-27 15:33N 60°13' E 025°12'0 0.0
2014-Oct-27 14:33N 60°13' E 025°12'0 0.0
2014-Oct-27 13:33N 60°13' E 025°12'0 0.0
2014-Oct-27 12:33N 60°13' E 025°12'0 0.1
2014-Oct-27 11:33N 60°13' E 025°12'9 9.2
2014-Oct-27 10:33N 60°04' E 025°09'1816.6
2014-Oct-27 09:29N 59°49' E 024°49'1516.5
2014-Oct-27 08:33N 59°44' E 024°21'1816.6
2014-Oct-27 07:30N 59°39' E 023°48'1816.9
2014-Oct-27 06:24N 59°33' E 023°13'23016.3
2014-Oct-26 16:20N 56°09' E 019°52'4817.2
2014-Oct-26 13:33N 55°24' E 019°24'1717.1
2014-Oct-26 12:33N 55°08' E 019°15'1717.3
2014-Oct-26 11:33N 54°52' E 019°05'1111.3
2014-Oct-26 10:34N 54°41' E 018°58'1413.8
2014-Oct-26 09:33N 54°32' E 018°40'5 5.3
2014-Oct-26 08:33N 54°32' E 018°31'0 0.0
2014-Oct-26 07:33N 54°32' E 018°31'0 0.0
2014-Oct-26 06:33N 54°32' E 018°31'0 0.0
2014-Oct-26 05:33N 54°32' E 018°31'0 0.0
2014-Oct-26 04:33N 54°32' E 018°31'0 0.0
2014-Oct-26 03:33N 54°32' E 018°31'0 0.0
2014-Oct-26 02:33N 54°32' E 018°31'0 0.0
2014-Oct-26 01:33N 54°32' E 018°31'0 0.0
2014-Oct-26 00:33N 54°32' E 018°31'1 0.9
2014-Oct-25 23:33N 54°32' E 018°33'1212.2
2014-Oct-25 22:34N 54°36' E 018°53'1615.8
2014-Oct-25 21:33N 54°51' E 019°03'1615.8
2014-Oct-25 20:33N 55°06' E 019°11'30213.7
2014-Oct-24 22:34N 59°37' E 023°19'1615.5
2014-Oct-24 21:33N 59°41' E 023°49'1716.0
2014-Oct-24 20:30N 59°46' E 024°21'3214.6
2014-Oct-24 18:18N 60°06' E 025°11'7 9.2
2014-Oct-24 17:33N 60°13' E 025°12'0 0.0
2014-Oct-24 16:30N 60°13' E 025°12'0 0.0
2014-Oct-24 15:30N 60°13' E 025°12'0 0.0
2014-Oct-24 14:34N 60°13' E 025°12'0 0.0
2014-Oct-24 13:33N 60°13' E 025°12'0 0.0
2014-Oct-24 12:31N 60°13' E 025°12'0 0.0
2014-Oct-24 11:30N 60°13' E 025°12'0 0.0
2014-Oct-24 10:30N 60°13' E 025°12'0 0.0
2014-Oct-24 09:31N 60°13' E 025°12'0 0.0
2014-Oct-24 08:34N 60°13' E 025°12'0 0.0
2014-Oct-24 07:30N 60°13' E 025°12'0 0.0
2014-Oct-24 06:33N 60°13' E 025°12'0 0.0
2014-Oct-24 05:33N 60°13' E 025°12'2512.4
2014-Oct-24 03:33N 59°51' E 024°49'1716.9
2014-Oct-24 02:34N 59°43' E 024°19'1817.3
2014-Oct-24 01:31N 59°37' E 023°46'24716.4
2014-Oct-23 10:27N 56°04' E 019°49'1517.0
2014-Oct-23 09:33N 55°50' E 019°40'1916.9
2014-Oct-23 08:27N 55°33' E 019°29'1517.0
2014-Oct-23 07:33N 55°18' E 019°21'1717.1
2014-Oct-23 06:34N 55°02' E 019°11'1717.2
2014-Oct-23 05:34N 54°46' E 019°01'1616.2
2014-Oct-23 04:33N 54°32' E 018°47'9 8.9
2014-Oct-23 03:33N 54°32' E 018°31'0 0.0
2014-Oct-23 02:31N 54°32' E 018°31'0 0.0
2014-Oct-23 01:31N 54°32' E 018°31'0 0.0
2014-Oct-23 00:31N 54°32' E 018°31'0 0.0
2014-Oct-22 23:31N 54°32' E 018°31'0 0.0
2014-Oct-22 22:31N 54°32' E 018°31'0 0.0
2014-Oct-22 21:22N 54°32' E 018°31'0 0.1
2014-Oct-22 20:33N 54°32' E 018°31'8 7.9
2014-Oct-22 19:34N 54°32' E 018°45'1616.2
2014-Oct-22 18:33N 54°46' E 018°59'1716.8
2014-Oct-22 17:33N 55°02' E 019°09'30516.1
2014-Oct-21 22:33N 59°37' E 023°16'1817.2
2014-Oct-21 21:32N 59°42' E 023°50'1717.4
2014-Oct-21 20:33N 59°47' E 024°22'3316.3
2014-Oct-21 18:31N 60°09' E 025°12'4 4.4
2014-Oct-21 17:31N 60°13' E 025°12'0 0.0
2014-Oct-21 16:31N 60°13' E 025°12'0 0.0
2014-Oct-21 15:31N 60°13' E 025°12'0 0.0
2014-Oct-21 14:31N 60°13' E 025°12'0 0.0
2014-Oct-21 13:31N 60°13' E 025°12'0 0.0
2014-Oct-21 12:31N 60°13' E 025°12'0 0.0
2014-Oct-21 11:31N 60°13' E 025°12'0 0.0
2014-Oct-21 10:31N 60°13' E 025°12'0 0.0
2014-Oct-21 09:31N 60°13' E 025°12'0 0.0
2014-Oct-21 08:31N 60°13' E 025°12'0 0.0
2014-Oct-21 07:31N 60°13' E 025°12'0 0.0
2014-Oct-21 06:31N 60°13' E 025°12'0 0.0
2014-Oct-21 05:31N 60°13' E 025°12'0 0.0
2014-Oct-21 04:31N 60°13' E 025°12'0 0.0
2014-Oct-21 03:31N 60°13' E 025°12'0 0.0
2014-Oct-21 02:31N 60°13' E 025°12'0 0.0
2014-Oct-21 01:31N 60°13' E 025°12'0 0.0
2014-Oct-21 00:31N 60°13' E 025°12'0 0.0
2014-Oct-20 23:31N 60°13' E 025°12'0 0.0
2014-Oct-20 22:31N 60°13' E 025°12'0 0.0
2014-Oct-20 21:31N 60°13' E 025°12'0 0.0
2014-Oct-20 20:31N 60°13' E 025°12'0 0.0
2014-Oct-20 19:31N 60°13' E 025°12'0 0.0
2014-Oct-20 18:31N 60°13' E 025°12'0 0.0
2014-Oct-20 17:31N 60°13' E 025°12'0 0.0
2014-Oct-20 16:28N 60°13' E 025°12'0 0.0
2014-Oct-20 15:31N 60°13' E 025°12'0 0.0
2014-Oct-20 14:31N 60°13' E 025°12'0 0.0
2014-Oct-20 13:31N 60°13' E 025°12'0 0.0
2014-Oct-20 12:31N 60°13' E 025°12'  

Dump ship's entire track history